Time;durP1;ratioP1;P1;durP2;ratioP2;P2;SDS_P1;SDS_P2;PMS_P1;PMS_P2;Temp;Humidity;BMP_temperature;BMP_pressure;BME280_temperature;BME280_humidity;BME280_pressure;Samples;Min_cycle;Max_cycle;Signal;HPM_P1;HPM_P2
2022/05/26 00:01:59;;;;;;;1.27;1.17;;;;;;;8.73;100.00;96748.97;10351146;28;20213;-76
2022/05/26 00:07:00;;;;;;;1.23;1.20;;;;;;;8.63;100.00;96737.72;10369234;28;20586;-76
2022/05/26 00:12:00;;;;;;;2.03;1.00;;;;;;;8.66;100.00;96742.66;10351074;28;20200;-76
2022/05/26 00:17:01;;;;;;;1.40;1.30;;;;;;;8.60;100.00;96738.81;10368484;28;20199;-76
2022/05/26 00:22:02;;;;;;;1.53;1.30;;;;;;;8.60;100.00;96741.44;10368224;28;20221;-76
2022/05/26 00:27:02;;;;;;;4.33;1.27;;;;;;;8.68;100.00;96741.56;10368596;28;20204;-76
2022/05/26 00:32:03;;;;;;;1.00;1.00;;;;;;;8.74;100.00;96740.16;10368429;28;20218;-76
2022/05/26 00:37:10;;;;;;;3.03;1.20;;;;;;;8.79;100.00;96732.72;10368058;28;20197;-76
2022/05/26 00:42:11;;;;;;;5.10;1.27;;;;;;;8.70;100.00;96728.34;10368155;28;20213;-76
2022/05/26 00:47:21;;;;;;;6.50;1.43;;;;;;;8.57;100.00;96728.66;10367821;28;20291;-76
2022/05/26 00:52:29;;;;;;;2.20;1.33;;;;;;;8.58;100.00;96725.09;10367982;28;20215;-76
2022/05/26 00:57:33;;;;;;;2.37;1.20;;;;;;;8.82;100.00;96727.19;10350171;28;20277;-76
2022/05/26 01:02:36;;;;;;;2.77;1.03;;;;;;;8.86;100.00;96731.16;10332981;28;20221;-76
2022/05/26 01:07:38;;;;;;;2.87;1.20;;;;;;;8.94;100.00;96733.03;10374724;28;20733;-76
2022/05/26 01:12:38;;;;;;;1.20;1.10;;;;;;;9.05;100.00;96725.00;10357330;28;20185;-75
2022/05/26 01:17:58;;;;;;;1.20;1.10;;;;;;;9.35;100.00;96728.25;10375537;28;20220;-76
2022/05/26 01:23:35;;;;;;;7.60;1.37;;;;;;;9.44;97.91;96716.09;10374549;28;20228;-75
2022/05/26 01:29:05;;;;;;;3.57;0.90;;;;;;;9.66;95.60;96708.75;10373194;28;20189;-76
2022/05/26 01:34:37;;;;;;;1.63;1.00;;;;;;;9.71;95.77;96714.34;10356628;28;20269;-76
2022/05/26 01:40:11;;;;;;;2.53;1.20;;;;;;;9.98;92.61;96710.78;10339324;28;20304;-76
2022/05/26 01:45:27;;;;;;;3.20;1.00;;;;;;;10.23;90.22;96696.09;10373629;28;20193;-76
2022/05/26 01:50:33;;;;;;;1.40;1.10;;;;;;;10.41;88.88;96677.69;10373355;28;20641;-75
2022/05/26 01:55:49;;;;;;;2.00;1.20;;;;;;;10.49;88.25;96690.84;10373421;28;20863;-76
2022/05/26 02:00:52;;;;;;;1.00;0.90;;;;;;;10.45;88.23;96699.19;10355810;28;20225;-75
2022/05/26 02:05:55;;;;;;;1.00;0.90;;;;;;;10.49;88.09;96692.63;10355945;28;20205;-75
2022/05/26 02:11:00;;;;;;;3.42;1.00;;;;;;;10.62;87.00;96682.56;10355375;28;20247;-76
2022/05/26 02:16:17;;;;;;;3.97;1.02;;;;;;;10.95;84.15;96663.50;10355439;28;20197;-75
2022/05/26 02:21:29;;;;;;;1.20;1.10;;;;;;;10.94;83.50;96651.38;10354736;28;20219;-76
2022/05/26 02:26:31;;;;;;;1.15;0.90;;;;;;;11.09;83.23;96660.28;10372475;28;20204;-76
2022/05/26 02:31:33;;;;;;;1.33;0.85;;;;;;;11.30;81.28;96638.84;10372296;28;20236;-76
2022/05/26 02:36:36;;;;;;;1.00;0.80;;;;;;;11.42;79.79;96627.03;10354861;28;20193;-76
2022/05/26 02:41:38;;;;;;;0.80;0.80;;;;;;;11.41;79.64;96633.25;10354106;28;20287;-76
2022/05/26 02:47:04;;;;;;;1.50;1.02;;;;;;;11.55;78.70;96621.28;10338006;28;20553;-76
2022/05/26 02:52:45;;;;;;;0.98;0.65;;;;;;;11.78;77.25;96621.44;10353829;28;20190;-76
2022/05/26 02:58:00;;;;;;;1.70;0.98;;;;;;;11.85;76.12;96605.84;10371346;28;20240;-76
2022/05/26 03:03:25;;;;;;;2.60;1.00;;;;;;;12.03;75.06;96591.72;10359479;28;20577;-76
2022/05/26 03:08:28;;;;;;;1.30;0.80;;;;;;;12.03;74.82;96604.84;10391471;28;20292;-76
2022/05/26 03:13:29;;;;;;;0.68;0.68;;;;;;;12.10;74.15;96604.00;10390669;28;20718;-76
2022/05/26 03:18:30;;;;;;;3.80;1.00;;;;;;;12.10;74.35;96604.00;10407030;28;20215;-76
2022/05/26 03:23:30;;;;;;;1.60;0.88;;;;;;;11.92;76.03;96635.69;10390057;28;20208;-76
2022/05/26 03:28:31;;;;;;;1.00;0.90;;;;;;;11.96;75.83;96623.09;10407063;28;20673;-76
2022/05/26 03:40:46;;;;;;;1.33;0.80;;;;;;;12.09;74.60;96619.94;10407398;28;20193;-76
2022/05/26 03:44:11;;;;;;;1.55;0.80;;;;;;;12.05;75.27;96635.22;10392445;28;20200;-76
2022/05/26 03:49:11;;;;;;;1.55;0.90;;;;;;;12.03;75.48;96641.59;10388936;28;20192;-75
2022/05/26 03:54:11;;;;;;;1.80;0.77;;;;;;;12.10;75.61;96648.63;10389061;28;20259;-76
2022/05/26 03:59:12;;;;;;;3.55;0.80;;;;;;;12.13;76.73;96664.06;10388596;28;20232;-76
2022/05/26 04:04:12;;;;;;;1.13;0.90;;;;;;;12.17;75.83;96648.78;10391627;28;20192;-75
2022/05/26 04:09:13;;;;;;;1.35;0.80;;;;;;;12.38;74.82;96645.59;10392481;28;20218;-75
2022/05/26 04:14:13;;;;;;;1.23;0.70;;;;;;;12.48;74.86;96643.59;10410425;28;20196;-76
2022/05/26 04:19:13;;;;;;;2.55;1.05;;;;;;;12.65;73.76;96635.66;10409365;28;20311;-76
2022/05/26 04:24:14;;;;;;;3.90;0.90;;;;;;;12.56;75.33;96666.41;10409570;28;20250;-76
2022/05/26 04:29:14;;;;;;;0.80;0.80;;;;;;;12.79;74.96;96661.22;10409641;28;20216;-76
2022/05/26 04:34:15;;;;;;;0.75;0.70;;;;;;;12.84;74.97;96655.44;10409373;28;20231;-75
2022/05/26 04:39:16;;;;;;;0.70;0.70;;;;;;;12.81;75.17;96676.81;10411515;28;20224;-76
2022/05/26 04:44:17;;;;;;;0.75;0.75;;;;;;;13.07;74.29;96665.19;10417813;28;20189;-75
2022/05/26 04:49:17;;;;;;;1.45;1.00;;;;;;;13.06;74.35;96669.59;10417551;28;20185;-76
2022/05/26 04:54:18;;;;;;;4.80;1.05;;;;;;;13.19;73.54;96659.34;10417448;28;20236;-76
2022/05/26 04:59:18;;;;;;;0.90;0.77;;;;;;;13.52;72.72;96656.53;10417046;28;20217;-76
2022/05/26 05:04:22;;;;;;;1.92;0.90;;;;;;;13.42;72.79;96674.34;10417089;28;20660;-76
2022/05/26 05:09:23;;;;;;;2.35;0.70;;;;;;;13.54;71.85;96661.63;10416754;28;20192;-76
2022/05/26 05:14:24;;;;;;;2.47;0.82;;;;;;;13.62;72.00;96674.69;10417031;28;20195;-75
2022/05/26 05:19:24;;;;;;;5.45;1.10;;;;;;;13.85;71.29;96677.31;10398059;28;20227;-76
2022/05/26 05:24:34;;;;;;;1.52;1.02;;;;;;;13.97;70.19;96672.44;10421757;28;20195;-75
2022/05/26 05:29:36;;;;;;;1.27;0.70;;;;;;;13.91;70.04;96670.53;10430509;28;20539;-75
2022/05/26 05:34:41;;;;;;;2.67;0.77;;;;;;;13.56;70.25;96663.06;10398169;28;20564;-75
2022/05/26 05:39:41;;;;;;;2.70;0.93;;;;;;;13.64;70.81;96691.13;10398209;28;20307;-76
2022/05/26 05:44:43;;;;;;;2.15;0.88;;;;;;;13.97;70.11;96692.69;10415511;28;20208;-75
2022/05/26 05:49:44;;;;;;;2.88;0.98;;;;;;;13.95;70.47;96705.22;10414501;28;20189;-75
2022/05/26 05:54:44;;;;;;;4.20;0.95;;;;;;;14.18;69.00;96677.03;10413347;28;20244;-75
2022/05/26 05:59:45;;;;;;;1.30;0.80;;;;;;;14.07;69.27;96695.88;10414944;28;20224;-75
2022/05/26 06:04:45;;;;;;;4.65;0.98;;;;;;;14.21;70.46;96721.44;10414793;28;20193;-75
2022/05/26 06:09:46;;;;;;;1.40;0.82;;;;;;;14.23;70.44;96716.00;10414379;28;20197;-76
2022/05/26 06:14:46;;;;;;;4.05;0.90;;;;;;;14.49;70.50;96722.66;10414500;28;20196;-76
2022/05/26 06:19:47;;;;;;;3.08;0.85;;;;;;;14.43;69.96;96719.75;10413634;28;20224;-76
2022/05/26 06:24:48;;;;;;;0.77;0.77;;;;;;;14.36;70.64;96742.53;10414195;28;20730;-75
2022/05/26 06:29:51;;;;;;;1.33;1.10;;;;;;;14.38;70.03;96724.75;10413812;28;20197;-75
2022/05/26 06:40:31;;;;;;;1.67;0.90;;;;;;;15.18;66.94;96700.47;10207048;29;20231;-76
2022/05/26 06:45:32;;;;;;;2.67;0.80;;;;;;;14.92;68.22;96731.59;10343385;28;20684;-75
2022/05/26 06:50:32;;;;;;;3.60;1.13;;;;;;;14.66;69.14;96749.72;10415676;28;20188;-76
2022/05/26 06:55:33;;;;;;;1.27;0.70;;;;;;;15.64;67.09;96722.03;10431744;28;20619;-75
2022/05/26 07:00:33;;;;;;;4.45;1.05;;;;;;;15.36;66.69;96697.38;10418247;28;20209;-75
2022/05/26 07:05:35;;;;;;;4.82;1.05;;;;;;;15.32;66.04;96697.75;10394230;28;20272;-77
2022/05/26 07:10:37;;;;;;;1.60;0.90;;;;;;;15.95;65.68;96712.19;10412145;28;20219;-79
2022/05/26 07:15:38;;;;;;;0.88;0.82;;;;;;;16.00;66.56;96730.94;10411752;28;20563;-78
2022/05/26 07:20:39;;;;;;;3.72;1.05;;;;;;;16.10;65.31;96714.78;10411473;28;20361;-79
2022/05/26 07:25:40;;;;;;;0.80;0.80;;;;;;;15.32;65.75;96712.78;10411508;28;20196;-78
2022/05/26 07:30:41;;;;;;;1.15;0.80;;;;;;;15.95;65.01;96713.00;10377046;28;20180;-77
2022/05/26 07:35:42;;;;;;;1.95;0.70;;;;;;;15.96;65.57;96725.22;10393770;28;20653;-77
2022/05/26 07:46:02;;;;;;;4.53;0.85;;;;;;;16.13;66.05;96767.25;10395795;28;20196;-77
2022/05/26 07:51:02;;;;;;;1.95;1.00;;;;;;;17.17;63.10;96720.72;10393186;28;20553;-77
2022/05/26 07:56:03;;;;;;;2.42;1.02;;;;;;;16.51;63.88;96728.06;10410282;28;20235;-77
2022/05/26 08:01:07;;;;;;;0.73;0.65;;;;;;;16.71;64.86;96769.72;10392695;28;20228;-78
2022/05/26 08:06:08;;;;;;;5.55;1.08;;;;;;;15.65;66.31;96779.16;10410415;28;20204;-77
2022/05/26 08:11:09;;;;;;;1.00;0.70;;;;;;;16.61;66.49;96799.13;10392704;28;20669;-77
2022/05/26 08:16:09;;;;;;;1.90;0.77;;;;;;;16.08;67.05;96802.16;10409911;28;20224;-78
2022/05/26 08:21:12;;;;;;;1.35;0.70;;;;;;;16.72;65.77;96790.69;10409126;28;20231;-77
2022/05/26 08:26:13;;;;;;;1.67;0.88;;;;;;;16.67;66.82;96810.78;10392369;28;20203;-77
2022/05/26 08:31:13;;;;;;;0.82;0.77;;;;;;;16.24;66.86;96809.00;10409583;28;20555;-77
2022/05/26 08:36:20;;;;;;;4.88;0.80;;;;;;;16.45;67.32;96817.91;10408614;28;20561;-78
2022/05/26 08:41:23;;;;;;;5.22;0.93;;;;;;;16.58;66.70;96818.03;10409840;28;20224;-77
2022/05/26 08:46:25;;;;;;;2.20;0.90;;;;;;;16.38;68.45;96842.47;10391664;28;20687;-77
2022/05/26 08:51:45;;;;;;;0.85;0.70;;;;;;;17.54;65.45;96795.41;10409791;28;20189;-77
2022/05/26 08:56:46;;;;;;;2.50;0.70;;;;;;;16.50;66.76;96808.41;10408721;28;20278;-77
2022/05/26 09:01:46;;;;;;;3.50;0.82;;;;;;;16.24;69.22;96861.88;10391761;28;20775;-78
2022/05/26 09:17:28;;;;;;;1.17;0.90;;;;;;;17.83;63.61;96763.25;10393668;28;20189;-77
2022/05/26 09:22:39;;;;;;;0.88;0.68;;;;;;;18.02;63.58;96775.97;10391193;28;20252;-77
2022/05/26 09:27:50;;;;;;;2.65;0.88;;;;;;;18.40;62.96;96784.13;10413498;28;20188;-77
2022/05/26 09:32:50;;;;;;;0.68;0.60;;;;;;;19.14;59.20;96707.88;10416602;28;20216;-78
2022/05/26 09:37:53;;;;;;;1.65;0.70;;;;;;;19.96;59.22;96733.78;10415834;28;20208;-77
2022/05/26 09:43:02;;;;;;;1.50;0.63;;;;;;;19.61;58.26;96704.97;10415674;28;20278;-77
2022/05/26 09:48:16;;;;;;;0.60;0.60;;;;;;;18.85;60.44;96763.09;10398457;28;20192;-77
2022/05/26 09:53:38;;;;;;;6.05;1.25;;;;;;;18.60;60.96;96767.41;10381154;28;20240;-78
2022/05/26 09:58:42;;;;;;;1.80;0.63;;;;;;;17.68;62.92;96783.00;10414997;28;20250;-78
2022/05/26 10:04:02;;;;;;;0.82;0.60;;;;;;;18.65;60.27;96752.50;10415173;28;20339;-77
2022/05/26 10:09:10;;;;;;;1.63;0.90;;;;;;;18.26;61.14;96766.59;10396674;28;20259;-78
2022/05/26 10:14:31;;;;;;;1.02;0.70;;;;;;;18.15;62.61;96808.59;10414763;28;20193;-78
2022/05/26 10:20:03;;;;;;;7.75;0.70;;;;;;;19.42;58.19;96743.91;10413911;28;20220;-77
2022/05/26 10:25:15;;;;;;;1.35;0.80;;;;;;;20.06;58.86;96770.53;10396735;28;20197;-77
2022/05/26 10:30:35;;;;;;;1.25;0.60;;;;;;;19.47;57.21;96696.25;10413717;28;20196;-78
2022/05/26 10:35:43;;;;;;;1.33;0.80;;;;;;;21.12;55.86;96720.03;10395846;28;20670;-77
2022/05/26 10:40:49;;;;;;;0.52;0.52;;;;;;;19.98;56.22;96710.47;10394870;28;20252;-77
2022/05/26 10:45:53;;;;;;;0.77;0.52;;;;;;;20.60;55.13;96694.56;10413698;28;20283;-78
2022/05/26 10:51:11;;;;;;;1.27;0.70;;;;;;;22.23;52.00;96655.66;10412739;28;20212;-77
2022/05/26 10:56:28;;;;;;;2.35;0.70;;;;;;;19.93;52.15;96626.03;10395384;28;20231;-77
2022/05/26 11:01:36;;;;;;;1.65;0.70;;;;;;;18.84;56.63;96721.63;10394618;28;20908;-77
2022/05/26 11:06:38;;;;;;;0.60;0.60;;;;;;;20.07;57.20;96758.88;10394719;28;20219;-77
2022/05/26 11:11:44;;;;;;;1.30;0.60;;;;;;;20.06;55.48;96709.38;10394732;28;20392;-77
2022/05/26 11:22:09;;;;;;;0.50;0.50;;;;;;;20.35;54.42;96707.88;10396305;28;20228;-78
2022/05/26 11:27:12;;;;;;;4.72;0.80;;;;;;;19.81;56.91;96750.03;10394066;28;20199;-77
2022/05/26 11:37:41;;;;;;;3.80;0.60;;;;;;;19.98;55.04;96705.13;10396375;28;20675;-77
2022/05/26 11:42:47;;;;;;;2.15;0.68;;;;;;;18.80;57.51;96762.88;10411819;28;20212;-77
2022/05/26 11:47:53;;;;;;;0.63;0.60;;;;;;;18.52;58.50;96765.78;10410381;28;20192;-77
2022/05/26 11:52:53;;;;;;;1.83;0.80;;;;;;;20.06;54.33;96707.53;10391550;28;20656;-78
2022/05/26 11:57:54;;;;;;;1.50;0.60;;;;;;;19.41;55.64;96724.47;10410531;28;20185;-78
2022/05/26 12:03:19;;;;;;;3.30;0.90;;;;;;;20.10;54.69;96724.69;10392803;28;20236;-76
2022/05/26 12:08:32;;;;;;;2.25;0.50;;;;;;;20.12;56.08;96746.56;10410135;28;20207;-78
2022/05/26 12:13:34;;;;;;;4.13;0.77;;;;;;;20.39;53.84;96698.44;10392768;28;20693;-77
2022/05/26 12:18:52;;;;;;;1.17;0.57;;;;;;;20.91;52.38;96676.84;10409493;28;20200;-77
2022/05/26 12:23:54;;;;;;;2.85;0.50;;;;;;;21.53;50.81;96651.84;10375534;28;20212;-77
2022/05/26 12:29:32;;;;;;;1.73;0.60;;;;;;;22.43;50.75;96664.19;10362915;28;20204;-75
2022/05/26 12:34:51;;;;;;;0.95;0.52;;;;;;;20.31;52.67;96659.63;10381514;28;20197;-76
2022/05/26 12:40:02;;;;;;;2.50;0.60;;;;;;;21.22;51.40;96661.69;10409714;28;20251;-77
2022/05/26 12:45:21;;;;;;;0.77;0.68;;;;;;;19.18;55.97;96732.97;10410082;28;20188;-77
2022/05/26 12:50:24;;;;;;;2.47;0.70;;;;;;;19.87;53.97;96704.00;10409529;28;20195;-77
2022/05/26 12:55:29;;;;;;;0.70;0.70;;;;;;;19.41;56.13;96750.25;10391561;28;20229;-77
2022/05/26 13:00:38;;;;;;;0.88;0.60;;;;;;;20.00;54.53;96723.53;10393583;28;20742;-77
2022/05/26 13:05:41;;;;;;;1.45;0.50;;;;;;;19.04;55.52;96716.28;10417205;28;20614;-77
2022/05/26 13:10:42;;;;;;;0.75;0.57;;;;;;;21.31;52.36;96688.84;10399242;28;20877;-75
2022/05/26 13:15:45;;;;;;;0.57;0.52;;;;;;;21.22;50.03;96632.38;10416548;28;20203;-77
2022/05/26 13:20:45;;;;;;;2.13;0.63;;;;;;;21.69;49.38;96624.53;10416021;28;20227;-77
2022/05/26 13:25:45;;;;;;;0.93;0.50;;;;;;;18.45;55.85;96704.78;10416247;28;20203;-77
2022/05/26 13:36:05;;;;;;;0.75;0.43;;;;;;;21.41;50.89;96656.31;10416247;28;20189;-77
2022/05/26 13:41:08;;;;;;;1.15;0.57;;;;;;;20.57;51.91;96668.38;10415623;28;20221;-77
2022/05/26 13:46:09;;;;;;;2.67;0.60;;;;;;;20.04;53.63;96685.66;10398080;28;20200;-77
2022/05/26 13:51:16;;;;;;;1.33;0.63;;;;;;;19.71;54.70;96697.34;10415582;28;20207;-77
2022/05/26 13:56:22;;;;;;;3.72;0.60;;;;;;;19.10;55.03;96696.03;10397316;28;20242;-78
2022/05/26 14:01:26;;;;;;;0.73;0.60;;;;;;;19.13;55.24;96708.09;10414661;28;20213;-77
2022/05/26 14:06:32;;;;;;;2.17;0.70;;;;;;;19.23;54.66;96698.63;10397116;28;20192;-77
2022/05/26 14:11:35;;;;;;;0.82;0.77;;;;;;;20.17;52.88;96675.94;10414316;28;20622;-77
2022/05/26 14:16:36;;;;;;;2.38;1.67;;;;;;;20.18;53.92;96710.28;10414012;28;20192;-77
2022/05/26 14:21:36;;;;;;;2.85;1.50;;;;;;;19.71;53.97;96701.81;10414004;28;20227;-77
2022/05/26 14:26:44;;;;;;;0.75;0.75;;;;;;;18.77;55.79;96726.13;10413572;28;20220;-77
2022/05/26 14:32:09;;;;;;;2.08;0.90;;;;;;;18.35;58.26;96783.94;10413556;28;20192;-77
2022/05/26 14:37:10;;;;;;;1.55;0.70;;;;;;;18.44;57.80;96774.75;10395861;28;20552;-76
2022/05/26 14:42:15;;;;;;;1.70;0.98;;;;;;;18.32;57.82;96760.47;10413201;28;20275;-77
2022/05/26 14:47:16;;;;;;;0.80;0.57;;;;;;;18.00;58.88;96778.81;10413314;28;20355;-76
2022/05/26 14:52:19;;;;;;;1.77;0.65;;;;;;;17.52;59.53;96795.59;10412613;28;20222;-77
2022/05/26 14:57:20;;;;;;;2.90;0.75;;;;;;;18.58;58.16;96780.88;10395067;28;20319;-77
2022/05/26 15:02:20;;;;;;;2.13;1.15;;;;;;;20.24;55.01;96733.38;10411794;28;20220;-77
2022/05/26 15:07:21;;;;;;;0.93;0.80;;;;;;;19.24;55.12;96720.69;10412714;28;20189;-77
2022/05/26 15:12:21;;;;;;;4.43;1.30;;;;;;;17.43;60.79;96800.22;10411946;28;20295;-77
2022/05/26 15:17:23;;;;;;;1.60;0.90;;;;;;;17.43;61.60;96821.44;10411988;28;20675;-77
2022/05/26 15:22:24;;;;;;;2.17;0.80;;;;;;;17.07;63.37;96843.63;10393194;28;20232;-77
2022/05/26 15:27:26;;;;;;;1.15;1.00;;;;;;;17.15;63.38;96836.56;10411005;28;20728;-77
2022/05/26 15:32:28;;;;;;;6.32;3.70;;;;;;;17.77;61.50;96806.47;10394078;28;20199;-77
2022/05/26 15:37:29;;;;;;;2.40;1.50;;;;;;;17.51;63.07;96823.09;10410970;28;20246;-77
2022/05/26 15:42:29;;;;;;;1.38;1.27;;;;;;;17.55;63.85;96852.63;10393310;28;20233;-76
2022/05/26 15:47:37;;;;;;;4.50;1.00;;;;;;;17.55;63.46;96831.44;10411031;28;20296;-77
2022/05/26 15:52:37;;;;;;;1.02;0.63;;;;;;;18.35;61.74;96798.00;10393364;28;20234;-77
2022/05/26 15:57:42;;;;;;;2.03;0.65;;;;;;;19.85;57.60;96737.97;10410241;28;20298;-77
2022/05/26 16:02:42;;;;;;;2.92;0.68;;;;;;;19.87;57.62;96730.56;10410353;28;20230;-78
2022/05/26 16:07:44;;;;;;;0.70;0.70;;;;;;;19.87;57.00;96719.13;10410082;28;20201;-77
2022/05/26 16:12:45;;;;;;;1.05;0.70;;;;;;;18.12;60.36;96763.13;10392149;28;20834;-77
2022/05/26 16:17:46;;;;;;;1.17;0.90;;;;;;;18.77;59.41;96768.59;10409919;28;20604;-77
2022/05/26 16:22:49;;;;;;;1.15;0.60;;;;;;;19.09;58.44;96750.16;10410454;28;20270;-77
2022/05/26 16:27:50;;;;;;;0.80;0.60;;;;;;;18.87;58.62;96746.97;10392392;28;20204;-78
2022/05/26 16:32:54;;;;;;;2.42;0.95;;;;;;;19.14;58.58;96742.41;10409702;28;20199;-78
2022/05/26 16:37:57;;;;;;;1.55;0.77;;;;;;;19.56;57.55;96726.84;10417449;28;20274;-78
2022/05/26 16:42:59;;;;;;;1.30;0.75;;;;;;;20.16;54.95;96685.75;10400380;28;20314;-79
2022/05/26 16:47:59;;;;;;;0.73;0.73;;;;;;;19.85;56.17;96706.06;10417622;28;20192;-78
2022/05/26 16:53:00;;;;;;;3.25;0.90;;;;;;;19.69;56.20;96711.84;10417643;28;20200;-78
2022/05/26 16:58:01;;;;;;;2.08;0.90;;;;;;;19.01;57.98;96745.91;10416898;28;20242;-78
2022/05/26 17:03:03;;;;;;;1.63;0.90;;;;;;;18.68;60.10;96775.13;10417209;28;20219;-78
2022/05/26 17:08:03;;;;;;;2.60;1.20;;;;;;;18.33;61.41;96805.38;10416728;28;20656;-78
2022/05/26 17:23:43;;;;;;;3.10;1.20;;;;;;;18.25;61.51;96797.59;10415824;28;20224;-78
2022/05/26 17:28:44;;;;;;;3.08;1.20;;;;;;;17.97;62.24;96818.97;10398667;28;20192;-78
2022/05/26 17:33:44;;;;;;;2.95;1.55;;;;;;;17.68;61.29;96788.31;10416248;28;20192;-78
2022/05/26 17:38:45;;;;;;;3.50;2.03;;;;;;;17.50;62.43;96812.69;10415512;28;20195;-77
2022/05/26 17:43:45;;;;;;;5.10;1.75;;;;;;;17.51;62.58;96809.84;10415681;28;20208;-78
2022/05/26 17:48:45;;;;;;;3.97;1.90;;;;;;;17.34;61.54;96782.88;10414448;28;20258;-77
2022/05/26 17:53:46;;;;;;;3.05;1.50;;;;;;;17.29;61.50;96780.03;10415032;28;20267;-77
2022/05/26 17:58:46;;;;;;;1.73;1.50;;;;;;;17.00;62.14;96795.16;10375974;28;20201;-77
2022/05/26 18:03:46;;;;;;;3.17;1.70;;;;;;;16.99;62.08;96777.63;10373919;28;20233;-77
2022/05/26 18:08:50;;;;;;;3.55;1.65;;;;;;;16.58;63.31;96795.06;10374713;28;20276;-78
2022/05/26 18:13:51;;;;;;;4.53;1.88;;;;;;;16.64;63.33;96804.03;10377592;28;20638;-77
2022/05/26 18:19:03;;;;;;;2.08;1.60;;;;;;;16.50;63.28;96789.09;10396346;28;20197;-77
2022/05/26 18:24:04;;;;;;;3.70;1.90;;;;;;;16.26;64.76;96811.47;10366059;28;20255;-77
2022/05/26 18:29:05;;;;;;;2.25;1.70;;;;;;;16.37;64.95;96821.50;10370859;28;20268;-77
2022/05/26 18:34:07;;;;;;;3.72;2.00;;;;;;;16.12;65.22;96818.47;10355718;28;20196;-77
2022/05/26 18:39:08;;;;;;;4.43;1.70;;;;;;;16.09;66.60;96853.19;10354595;28;20190;-77
2022/05/26 18:44:11;;;;;;;3.15;1.92;;;;;;;16.28;66.03;96834.06;10380367;28;20220;-77
2022/05/26 18:49:15;;;;;;;4.72;1.83;;;;;;;16.07;66.94;96853.38;10375575;28;20642;-77
2022/05/26 18:54:16;;;;;;;3.08;2.35;;;;;;;16.10;65.73;96815.19;10379618;28;20232;-77
2022/05/26 18:59:16;;;;;;;4.40;1.95;;;;;;;16.20;65.85;96824.44;10390680;28;20574;-77
2022/05/26 19:04:16;;;;;;;7.80;2.65;;;;;;;16.05;66.08;96824.50;10404130;28;20223;-76
2022/05/26 19:09:18;;;;;;;3.78;1.73;;;;;;;16.02;67.21;96851.28;10411001;28;20669;-77
2022/05/26 19:14:29;;;;;;;2.83;1.73;;;;;;;15.73;69.11;96888.31;10410236;28;20220;-77
2022/05/26 19:19:29;;;;;;;4.97;2.08;;;;;;;15.98;67.71;96860.59;10410445;28;20216;-77
2022/05/26 19:24:30;;;;;;;5.60;1.73;;;;;;;15.90;68.24;96883.69;10411614;28;20212;-77
2022/05/26 19:29:37;;;;;;;3.80;2.17;;;;;;;15.87;68.13;96874.31;10393925;28;20224;-77
2022/05/26 19:34:38;;;;;;;6.57;1.80;;;;;;;15.51;69.89;96917.28;10394140;28;20189;-77
2022/05/26 19:39:39;;;;;;;3.13;1.40;;;;;;;15.75;68.85;96894.25;10393592;28;20255;-77
2022/05/26 19:44:40;;;;;;;5.38;1.80;;;;;;;15.55;69.24;96892.16;10411185;28;20218;-77
2022/05/26 19:49:41;;;;;;;3.10;1.55;;;;;;;15.62;69.39;96894.88;10392864;28;20188;-77
2022/05/26 19:54:41;;;;;;;4.90;1.40;;;;;;;15.59;69.61;96901.38;10410808;28;20972;-77
2022/05/26 19:59:42;;;;;;;2.22;1.20;;;;;;;15.41;70.64;96906.22;10376193;28;20711;-76
2022/05/26 20:04:42;;;;;;;2.38;1.70;;;;;;;15.33;71.19;96909.75;10410790;28;20194;-77
2022/05/26 20:09:42;;;;;;;1.63;1.42;;;;;;;15.33;71.53;96907.94;10375868;28;20243;-77
2022/05/26 20:14:43;;;;;;;4.60;1.65;;;;;;;15.17;71.73;96905.44;10410272;28;20202;-77
2022/05/26 20:19:46;;;;;;;2.30;1.40;;;;;;;15.35;70.96;96891.91;10409148;28;20343;-77
2022/05/26 20:24:46;;;;;;;5.95;1.70;;;;;;;15.39;70.79;96887.06;10392419;28;20224;-77
2022/05/26 20:29:47;;;;;;;3.88;1.50;;;;;;;15.38;71.04;96885.44;10409624;28;20287;-77
2022/05/26 20:34:48;;;;;;;3.80;1.33;;;;;;;15.36;71.46;96884.78;10409848;28;20196;-77
2022/05/26 20:39:49;;;;;;;3.72;1.50;;;;;;;15.39;71.28;96887.06;10409677;28;20634;-77
2022/05/26 20:44:51;;;;;;;2.63;1.58;;;;;;;15.38;71.12;96880.16;10391888;28;20212;-77
2022/05/26 20:49:52;;;;;;;2.63;1.40;;;;;;;15.43;71.48;96883.06;10391983;28;20575;-77
2022/05/26 20:54:52;;;;;;;2.20;1.50;;;;;;;15.42;71.65;96881.44;10409237;28;20266;-77
2022/05/26 20:59:53;;;;;;;1.67;1.13;;;;;;;15.30;71.93;96873.16;10409403;28;20251;-77
2022/05/26 21:04:53;;;;;;;6.03;1.80;;;;;;;15.24;72.24;96879.19;10409027;28;20924;-76
2022/05/26 21:09:53;;;;;;;6.57;1.55;;;;;;;15.29;71.97;96874.97;10408773;28;20220;-77
2022/05/26 21:14:54;;;;;;;1.35;1.25;;;;;;;15.19;71.87;96871.81;10409161;28;20258;-77
2022/05/26 21:19:54;;;;;;;2.63;1.25;;;;;;;15.30;71.60;96857.34;10408266;28;20239;-77
2022/05/26 21:24:54;;;;;;;4.78;1.67;;;;;;;15.33;71.33;96857.78;10416539;28;20679;-77
2022/05/26 21:29:55;;;;;;;2.85;1.60;;;;;;;15.39;70.93;96839.56;10416099;28;20656;-77
2022/05/26 21:34:57;;;;;;;3.85;1.20;;;;;;;15.32;71.38;96845.56;10398769;28;20679;-77
2022/05/26 21:39:58;;;;;;;1.33;1.20;;;;;;;15.36;71.64;96834.63;10398169;28;20220;-77
2022/05/26 21:44:58;;;;;;;4.97;1.00;;;;;;;15.24;71.85;96827.19;10415690;28;20189;-77
2022/05/26 21:49:58;;;;;;;2.70;1.02;;;;;;;15.29;72.00;96832.72;10415888;28;20251;-77
2022/05/26 21:54:59;;;;;;;2.67;1.30;;;;;;;15.14;72.19;96821.38;10397404;28;20232;-77
2022/05/26 21:59:59;;;;;;;2.70;1.33;;;;;;;15.11;72.57;96830.47;10415093;28;20233;-77
2022/05/26 22:15:38;;;;;;;2.20;1.00;;;;;;;15.03;73.69;96832.41;10414053;28;20207;-77
2022/05/26 22:20:38;;;;;;;4.22;1.17;;;;;;;15.09;73.04;96818.47;10413889;28;20224;-77
2022/05/26 22:25:39;;;;;;;2.13;1.08;;;;;;;14.89;74.11;96824.28;10379806;28;20188;-77
2022/05/26 22:30:40;;;;;;;2.75;1.10;;;;;;;14.85;74.46;96819.53;10379499;28;20200;-77
2022/05/26 22:35:40;;;;;;;2.08;1.20;;;;;;;14.73;74.51;96824.44;10413389;28;20276;-77
2022/05/26 22:40:44;;;;;;;1.20;1.10;;;;;;;14.77;74.54;96809.91;10412989;28;20217;-77
2022/05/26 22:45:52;;;;;;;2.63;1.30;;;;;;;14.70;75.25;96819.53;10412923;28;20242;-77
2022/05/26 22:50:53;;;;;;;3.28;1.40;;;;;;;14.69;75.08;96816.06;10394920;28;20226;-77
2022/05/26 22:55:55;;;;;;;3.40;1.40;;;;;;;14.70;75.57;96812.44;10412729;28;20236;-77
2022/05/26 23:00:55;;;;;;;1.95;1.00;;;;;;;14.79;75.55;96807.88;10394471;28;20217;-77
2022/05/26 23:05:56;;;;;;;1.10;1.00;;;;;;;14.87;74.78;96792.00;10412546;28;20560;-77
2022/05/26 23:10:57;;;;;;;1.02;1.02;;;;;;;14.96;74.45;96788.28;10411646;28;20188;-77
2022/05/26 23:15:57;;;;;;;3.45;1.20;;;;;;;15.04;74.18;96790.00;10412229;28;20196;-77
2022/05/26 23:20:58;;;;;;;3.95;1.30;;;;;;;15.21;72.91;96768.69;10411485;28;20303;-77
2022/05/26 23:25:59;;;;;;;2.83;1.30;;;;;;;15.34;72.53;96756.47;10393770;28;20267;-77
2022/05/26 23:30:59;;;;;;;2.53;1.08;;;;;;;15.39;72.42;96758.56;10393881;28;20287;-77
2022/05/26 23:36:00;;;;;;;2.38;1.00;;;;;;;15.36;72.32;96756.28;10393517;28;20191;-77
2022/05/26 23:46:20;;;;;;;1.30;1.10;;;;;;;15.41;71.89;96737.25;10410523;28;20652;-77
2022/05/26 23:51:20;;;;;;;3.03;1.20;;;;;;;15.43;71.74;96722.03;10410420;28;20204;-77
